sensor_id;sensor_type;location;lat;lon;timestamp;P1;durP1;ratioP1;P2;durP2;ratioP2
17494;SDS011;8864;51.970;4.614;2022-11-15T00:01:14;23.48;;;9.27;;
17494;SDS011;8864;51.970;4.614;2022-11-15T00:03:43;22.55;;;9.32;;
17494;SDS011;8864;51.970;4.614;2022-11-15T00:06:11;21.15;;;9.25;;
17494;SDS011;8864;51.970;4.614;2022-11-15T00:08:38;19.02;;;8.80;;
17494;SDS011;8864;51.970;4.614;2022-11-15T00:11:06;21.27;;;9.45;;
17494;SDS011;8864;51.970;4.614;2022-11-15T00:13:35;20.25;;;8.50;;
17494;SDS011;8864;51.970;4.614;2022-11-15T00:16:02;19.98;;;8.57;;
17494;SDS011;8864;51.970;4.614;2022-11-15T00:18:29;22.85;;;9.73;;
17494;SDS011;8864;51.970;4.614;2022-11-15T00:21:02;22.08;;;9.32;;
17494;SDS011;8864;51.970;4.614;2022-11-15T00:23:30;28.73;;;9.68;;
17494;SDS011;8864;51.970;4.614;2022-11-15T00:25:57;18.92;;;9.43;;
17494;SDS011;8864;51.970;4.614;2022-11-15T00:28:26;22.90;;;9.68;;
17494;SDS011;8864;51.970;4.614;2022-11-15T00:30:53;20.92;;;9.05;;
17494;SDS011;8864;51.970;4.614;2022-11-15T00:33:19;18.48;;;8.90;;
17494;SDS011;8864;51.970;4.614;2022-11-15T00:35:46;22.17;;;9.20;;
17494;SDS011;8864;51.970;4.614;2022-11-15T00:38:13;23.83;;;9.77;;
17494;SDS011;8864;51.970;4.614;2022-11-15T00:40:40;22.00;;;9.30;;
17494;SDS011;8864;51.970;4.614;2022-11-15T00:43:07;20.00;;;9.25;;
17494;SDS011;8864;51.970;4.614;2022-11-15T00:45:35;20.02;;;9.40;;
17494;SDS011;8864;51.970;4.614;2022-11-15T00:48:02;20.42;;;9.65;;
17494;SDS011;8864;51.970;4.614;2022-11-15T00:50:29;22.27;;;9.13;;
17494;SDS011;8864;51.970;4.614;2022-11-15T00:52:56;20.65;;;9.18;;
17494;SDS011;8864;51.970;4.614;2022-11-15T00:55:22;22.45;;;9.48;;
17494;SDS011;8864;51.970;4.614;2022-11-15T00:57:49;23.30;;;9.93;;
17494;SDS011;8864;51.970;4.614;2022-11-15T01:00:16;19.33;;;9.63;;
17494;SDS011;8864;51.970;4.614;2022-11-15T01:02:44;19.52;;;9.60;;
17494;SDS011;8864;51.970;4.614;2022-11-15T01:05:11;22.38;;;9.57;;
17494;SDS011;8864;51.970;4.614;2022-11-15T01:07:38;22.85;;;10.25;;
17494;SDS011;8864;51.970;4.614;2022-11-15T01:10:05;23.63;;;10.55;;
17494;SDS011;8864;51.970;4.614;2022-11-15T01:12:32;22.50;;;10.10;;
17494;SDS011;8864;51.970;4.614;2022-11-15T01:14:59;25.23;;;11.00;;
17494;SDS011;8864;51.970;4.614;2022-11-15T01:17:26;20.88;;;9.90;;
17494;SDS011;8864;51.970;4.614;2022-11-15T01:19:54;22.77;;;9.98;;
17494;SDS011;8864;51.970;4.614;2022-11-15T01:22:21;22.38;;;10.00;;
17494;SDS011;8864;51.970;4.614;2022-11-15T01:24:49;21.63;;;9.68;;
17494;SDS011;8864;51.970;4.614;2022-11-15T01:27:16;26.52;;;10.65;;
17494;SDS011;8864;51.970;4.614;2022-11-15T01:29:43;24.38;;;9.90;;
17494;SDS011;8864;51.970;4.614;2022-11-15T01:32:09;26.13;;;10.25;;
17494;SDS011;8864;51.970;4.614;2022-11-15T01:34:36;25.60;;;10.40;;
17494;SDS011;8864;51.970;4.614;2022-11-15T01:37:04;22.10;;;9.77;;
17494;SDS011;8864;51.970;4.614;2022-11-15T01:39:31;24.48;;;10.55;;
17494;SDS011;8864;51.970;4.614;2022-11-15T01:41:58;25.42;;;10.40;;
17494;SDS011;8864;51.970;4.614;2022-11-15T01:47:14;24.70;;;10.10;;
17494;SDS011;8864;51.970;4.614;2022-11-15T01:49:46;25.17;;;11.23;;
17494;SDS011;8864;51.970;4.614;2022-11-15T01:52:19;24.25;;;10.60;;
17494;SDS011;8864;51.970;4.614;2022-11-15T01:54:48;25.27;;;10.00;;
17494;SDS011;8864;51.970;4.614;2022-11-15T01:57:18;29.58;;;11.18;;
17494;SDS011;8864;51.970;4.614;2022-11-15T01:59:45;32.75;;;10.82;;
17494;SDS011;8864;51.970;4.614;2022-11-15T02:02:13;25.17;;;10.32;;
17494;SDS011;8864;51.970;4.614;2022-11-15T02:04:41;28.15;;;11.23;;
17494;SDS011;8864;51.970;4.614;2022-11-15T02:07:10;27.25;;;10.82;;
17494;SDS011;8864;51.970;4.614;2022-11-15T02:09:41;23.98;;;10.40;;
17494;SDS011;8864;51.970;4.614;2022-11-15T02:12:09;24.02;;;10.35;;
17494;SDS011;8864;51.970;4.614;2022-11-15T02:14:38;28.55;;;11.38;;
17494;SDS011;8864;51.970;4.614;2022-11-15T02:17:12;25.52;;;11.13;;
17494;SDS011;8864;51.970;4.614;2022-11-15T02:23:15;27.65;;;11.13;;
17494;SDS011;8864;51.970;4.614;2022-11-15T02:26:11;25.73;;;10.73;;
17494;SDS011;8864;51.970;4.614;2022-11-15T02:28:58;30.75;;;9.90;;
17494;SDS011;8864;51.970;4.614;2022-11-15T02:31:31;26.92;;;10.95;;
17494;SDS011;8864;51.970;4.614;2022-11-15T02:34:08;26.35;;;10.32;;
17494;SDS011;8864;51.970;4.614;2022-11-15T02:36:43;30.13;;;11.05;;
17494;SDS011;8864;51.970;4.614;2022-11-15T02:39:23;27.27;;;10.43;;
17494;SDS011;8864;51.970;4.614;2022-11-15T02:41:59;32.25;;;10.73;;
17494;SDS011;8864;51.970;4.614;2022-11-15T02:44:30;29.55;;;10.30;;
17494;SDS011;8864;51.970;4.614;2022-11-15T02:47:03;22.63;;;9.80;;
17494;SDS011;8864;51.970;4.614;2022-11-15T02:49:40;27.70;;;10.27;;
17494;SDS011;8864;51.970;4.614;2022-11-15T02:52:13;23.75;;;10.25;;
17494;SDS011;8864;51.970;4.614;2022-11-15T02:54:41;20.55;;;9.73;;
17494;SDS011;8864;51.970;4.614;2022-11-15T02:57:10;21.98;;;9.43;;
17494;SDS011;8864;51.970;4.614;2022-11-15T02:59:49;21.20;;;9.63;;
17494;SDS011;8864;51.970;4.614;2022-11-15T03:02:41;24.00;;;9.75;;
17494;SDS011;8864;51.970;4.614;2022-11-15T03:05:19;20.50;;;9.40;;
17494;SDS011;8864;51.970;4.614;2022-11-15T03:07:52;21.70;;;10.02;;
17494;SDS011;8864;51.970;4.614;2022-11-15T03:10:25;20.73;;;9.32;;
17494;SDS011;8864;51.970;4.614;2022-11-15T03:12:59;21.90;;;9.32;;
17494;SDS011;8864;51.970;4.614;2022-11-15T03:15:35;19.85;;;8.85;;
17494;SDS011;8864;51.970;4.614;2022-11-15T03:18:08;21.55;;;9.13;;
17494;SDS011;8864;51.970;4.614;2022-11-15T03:20:40;25.52;;;9.90;;
17494;SDS011;8864;51.970;4.614;2022-11-15T03:23:09;20.13;;;9.10;;
17494;SDS011;8864;51.970;4.614;2022-11-15T03:25:40;17.98;;;8.68;;
17494;SDS011;8864;51.970;4.614;2022-11-15T03:28:11;16.42;;;8.27;;
17494;SDS011;8864;51.970;4.614;2022-11-15T03:30:42;23.05;;;9.43;;
17494;SDS011;8864;51.970;4.614;2022-11-15T03:33:13;22.73;;;8.63;;
17494;SDS011;8864;51.970;4.614;2022-11-15T03:35:40;21.80;;;8.90;;
17494;SDS011;8864;51.970;4.614;2022-11-15T03:38:11;17.35;;;8.35;;
17494;SDS011;8864;51.970;4.614;2022-11-15T03:40:49;18.35;;;7.97;;
17494;SDS011;8864;51.970;4.614;2022-11-15T03:43:24;16.30;;;7.72;;
17494;SDS011;8864;51.970;4.614;2022-11-15T03:45:56;17.35;;;7.72;;
17494;SDS011;8864;51.970;4.614;2022-11-15T03:48:29;13.98;;;7.55;;
17494;SDS011;8864;51.970;4.614;2022-11-15T03:51:02;14.63;;;7.03;;
17494;SDS011;8864;51.970;4.614;2022-11-15T03:53:30;16.50;;;8.15;;
17494;SDS011;8864;51.970;4.614;2022-11-15T03:55:57;14.75;;;7.43;;
17494;SDS011;8864;51.970;4.614;2022-11-15T03:58:24;14.00;;;7.13;;
17494;SDS011;8864;51.970;4.614;2022-11-15T04:00:51;15.10;;;6.90;;
17494;SDS011;8864;51.970;4.614;2022-11-15T04:03:17;15.07;;;6.72;;
17494;SDS011;8864;51.970;4.614;2022-11-15T04:05:45;14.57;;;7.18;;
17494;SDS011;8864;51.970;4.614;2022-11-15T04:08:12;14.95;;;7.00;;
17494;SDS011;8864;51.970;4.614;2022-11-15T04:10:39;11.50;;;6.25;;
17494;SDS011;8864;51.970;4.614;2022-11-15T04:13:06;13.10;;;6.50;;
17494;SDS011;8864;51.970;4.614;2022-11-15T04:15:32;15.70;;;6.18;;
17494;SDS011;8864;51.970;4.614;2022-11-15T04:17:59;13.82;;;6.15;;
17494;SDS011;8864;51.970;4.614;2022-11-15T04:20:27;11.90;;;6.00;;
17494;SDS011;8864;51.970;4.614;2022-11-15T04:23:15;13.02;;;6.32;;
17494;SDS011;8864;51.970;4.614;2022-11-15T04:26:01;11.82;;;6.15;;
17494;SDS011;8864;51.970;4.614;2022-11-15T04:28:30;10.82;;;5.43;;
17494;SDS011;8864;51.970;4.614;2022-11-15T04:30:56;13.63;;;6.32;;
17494;SDS011;8864;51.970;4.614;2022-11-15T04:33:23;10.20;;;4.80;;
17494;SDS011;8864;51.970;4.614;2022-11-15T04:35:50;10.15;;;5.60;;
17494;SDS011;8864;51.970;4.614;2022-11-15T04:38:33;10.52;;;5.53;;
17494;SDS011;8864;51.970;4.614;2022-11-15T04:41:00;14.27;;;5.63;;
17494;SDS011;8864;51.970;4.614;2022-11-15T04:43:27;14.18;;;5.15;;
17494;SDS011;8864;51.970;4.614;2022-11-15T04:45:54;12.10;;;5.03;;
17494;SDS011;8864;51.970;4.614;2022-11-15T04:48:21;11.15;;;4.97;;
17494;SDS011;8864;51.970;4.614;2022-11-15T04:50:48;11.10;;;5.57;;
17494;SDS011;8864;51.970;4.614;2022-11-15T04:53:15;7.70;;;4.25;;
17494;SDS011;8864;51.970;4.614;2022-11-15T04:55:45;9.98;;;5.05;;
17494;SDS011;8864;51.970;4.614;2022-11-15T04:58:12;11.30;;;4.93;;
17494;SDS011;8864;51.970;4.614;2022-11-15T05:00:39;7.22;;;4.15;;
17494;SDS011;8864;51.970;4.614;2022-11-15T05:03:05;6.35;;;4.45;;
17494;SDS011;8864;51.970;4.614;2022-11-15T05:05:50;9.05;;;4.47;;
17494;SDS011;8864;51.970;4.614;2022-11-15T05:08:17;9.50;;;4.10;;
17494;SDS011;8864;51.970;4.614;2022-11-15T05:10:45;9.18;;;4.20;;
17494;SDS011;8864;51.970;4.614;2022-11-15T05:13:13;7.20;;;3.78;;
17494;SDS011;8864;51.970;4.614;2022-11-15T05:15:40;8.90;;;4.10;;
17494;SDS011;8864;51.970;4.614;2022-11-15T05:18:07;6.53;;;3.50;;
17494;SDS011;8864;51.970;4.614;2022-11-15T05:20:33;8.40;;;3.65;;
17494;SDS011;8864;51.970;4.614;2022-11-15T05:23:00;7.97;;;3.92;;
17494;SDS011;8864;51.970;4.614;2022-11-15T05:25:27;8.68;;;3.80;;
17494;SDS011;8864;51.970;4.614;2022-11-15T05:27:55;7.13;;;3.45;;
17494;SDS011;8864;51.970;4.614;2022-11-15T05:30:22;6.82;;;3.33;;
17494;SDS011;8864;51.970;4.614;2022-11-15T05:32:49;11.93;;;4.20;;
17494;SDS011;8864;51.970;4.614;2022-11-15T05:35:18;8.38;;;3.75;;
17494;SDS011;8864;51.970;4.614;2022-11-15T05:37:53;5.75;;;3.58;;
17494;SDS011;8864;51.970;4.614;2022-11-15T05:40:20;10.23;;;3.60;;
17494;SDS011;8864;51.970;4.614;2022-11-15T05:42:47;6.60;;;3.20;;
17494;SDS011;8864;51.970;4.614;2022-11-15T05:45:15;6.03;;;3.50;;
17494;SDS011;8864;51.970;4.614;2022-11-15T05:47:42;6.60;;;3.15;;
17494;SDS011;8864;51.970;4.614;2022-11-15T05:50:11;10.73;;;3.95;;
17494;SDS011;8864;51.970;4.614;2022-11-15T05:52:38;9.85;;;3.40;;
17494;SDS011;8864;51.970;4.614;2022-11-15T05:55:06;4.97;;;2.70;;
17494;SDS011;8864;51.970;4.614;2022-11-15T05:57:34;7.20;;;3.38;;
17494;SDS011;8864;51.970;4.614;2022-11-15T06:00:02;8.10;;;3.35;;
17494;SDS011;8864;51.970;4.614;2022-11-15T06:02:31;6.30;;;2.60;;
17494;SDS011;8864;51.970;4.614;2022-11-15T06:04:58;5.78;;;2.97;;
17494;SDS011;8864;51.970;4.614;2022-11-15T06:07:24;7.60;;;3.05;;
17494;SDS011;8864;51.970;4.614;2022-11-15T06:09:51;4.57;;;2.63;;
17494;SDS011;8864;51.970;4.614;2022-11-15T06:12:18;9.38;;;3.42;;
17494;SDS011;8864;51.970;4.614;2022-11-15T06:14:45;9.68;;;2.80;;
17494;SDS011;8864;51.970;4.614;2022-11-15T06:17:11;10.73;;;3.40;;
17494;SDS011;8864;51.970;4.614;2022-11-15T06:19:40;13.57;;;2.47;;
17494;SDS011;8864;51.970;4.614;2022-11-15T06:22:06;6.22;;;2.63;;
17494;SDS011;8864;51.970;4.614;2022-11-15T06:24:34;6.15;;;2.63;;
17494;SDS011;8864;51.970;4.614;2022-11-15T06:27:01;6.43;;;2.60;;
17494;SDS011;8864;51.970;4.614;2022-11-15T06:29:28;7.70;;;2.70;;
17494;SDS011;8864;51.970;4.614;2022-11-15T06:31:54;9.27;;;2.40;;
17494;SDS011;8864;51.970;4.614;2022-11-15T06:34:21;6.43;;;2.58;;
17494;SDS011;8864;51.970;4.614;2022-11-15T06:36:49;6.00;;;2.70;;
17494;SDS011;8864;51.970;4.614;2022-11-15T06:39:16;9.88;;;2.33;;
17494;SDS011;8864;51.970;4.614;2022-11-15T06:41:43;7.30;;;1.95;;
17494;SDS011;8864;51.970;4.614;2022-11-15T06:44:10;3.60;;;1.90;;
17494;SDS011;8864;51.970;4.614;2022-11-15T06:46:36;5.47;;;2.08;;
17494;SDS011;8864;51.970;4.614;2022-11-15T06:49:03;4.65;;;1.95;;
17494;SDS011;8864;51.970;4.614;2022-11-15T06:51:30;6.50;;;1.98;;
17494;SDS011;8864;51.970;4.614;2022-11-15T06:53:58;5.22;;;2.08;;
17494;SDS011;8864;51.970;4.614;2022-11-15T06:56:25;5.43;;;1.98;;
17494;SDS011;8864;51.970;4.614;2022-11-15T06:58:52;3.20;;;1.67;;
17494;SDS011;8864;51.970;4.614;2022-11-15T07:01:18;4.40;;;2.13;;
17494;SDS011;8864;51.970;4.614;2022-11-15T07:03:45;6.00;;;1.75;;
17494;SDS011;8864;51.970;4.614;2022-11-15T07:06:12;5.82;;;1.83;;
17494;SDS011;8864;51.970;4.614;2022-11-15T07:08:39;8.25;;;2.00;;
17494;SDS011;8864;51.970;4.614;2022-11-15T07:11:08;4.72;;;1.90;;
17494;SDS011;8864;51.970;4.614;2022-11-15T07:13:35;3.90;;;1.48;;
17494;SDS011;8864;51.970;4.614;2022-11-15T07:16:03;4.30;;;1.73;;
17494;SDS011;8864;51.970;4.614;2022-11-15T07:18:31;5.90;;;1.90;;
17494;SDS011;8864;51.970;4.614;2022-11-15T07:21:00;5.50;;;1.73;;
17494;SDS011;8864;51.970;4.614;2022-11-15T07:23:28;3.42;;;1.77;;
17494;SDS011;8864;51.970;4.614;2022-11-15T07:25:55;6.95;;;2.00;;
17494;SDS011;8864;51.970;4.614;2022-11-15T07:28:25;5.57;;;1.90;;
17494;SDS011;8864;51.970;4.614;2022-11-15T07:30:52;5.38;;;1.80;;
17494;SDS011;8864;51.970;4.614;2022-11-15T07:33:20;9.18;;;1.83;;
17494;SDS011;8864;51.970;4.614;2022-11-15T07:35:47;4.65;;;1.65;;
17494;SDS011;8864;51.970;4.614;2022-11-15T07:38:16;17.85;;;1.98;;
17494;SDS011;8864;51.970;4.614;2022-11-15T07:40:45;6.13;;;1.90;;
17494;SDS011;8864;51.970;4.614;2022-11-15T07:43:12;18.38;;;2.47;;
17494;SDS011;8864;51.970;4.614;2022-11-15T07:45:44;8.18;;;1.85;;
17494;SDS011;8864;51.970;4.614;2022-11-15T07:48:11;7.30;;;2.08;;
17494;SDS011;8864;51.970;4.614;2022-11-15T07:50:40;6.30;;;1.95;;
17494;SDS011;8864;51.970;4.614;2022-11-15T07:53:07;5.93;;;2.00;;
17494;SDS011;8864;51.970;4.614;2022-11-15T07:55:35;9.18;;;1.80;;
17494;SDS011;8864;51.970;4.614;2022-11-15T07:58:02;5.25;;;1.92;;
17494;SDS011;8864;51.970;4.614;2022-11-15T08:00:30;5.63;;;1.95;;
17494;SDS011;8864;51.970;4.614;2022-11-15T08:03:02;77.20;;;10.18;;
17494;SDS011;8864;51.970;4.614;2022-11-15T08:05:30;30.45;;;5.25;;
17494;SDS011;8864;51.970;4.614;2022-11-15T08:07:57;27.88;;;4.03;;
17494;SDS011;8864;51.970;4.614;2022-11-15T08:10:24;19.73;;;3.33;;
17494;SDS011;8864;51.970;4.614;2022-11-15T08:12:56;20.20;;;3.30;;
17494;SDS011;8864;51.970;4.614;2022-11-15T08:15:23;17.00;;;3.40;;
17494;SDS011;8864;51.970;4.614;2022-11-15T08:17:53;11.35;;;3.25;;
17494;SDS011;8864;51.970;4.614;2022-11-15T08:20:22;48.28;;;8.32;;
17494;SDS011;8864;51.970;4.614;2022-11-15T08:22:49;54.47;;;8.25;;
17494;SDS011;8864;51.970;4.614;2022-11-15T08:25:16;44.92;;;8.48;;
17494;SDS011;8864;51.970;4.614;2022-11-15T08:27:43;59.33;;;8.32;;
17494;SDS011;8864;51.970;4.614;2022-11-15T08:30:10;51.22;;;8.00;;
17494;SDS011;8864;51.970;4.614;2022-11-15T08:32:38;51.83;;;8.23;;
17494;SDS011;8864;51.970;4.614;2022-11-15T08:35:05;38.92;;;7.45;;
17494;SDS011;8864;51.970;4.614;2022-11-15T08:37:34;31.48;;;6.60;;
17494;SDS011;8864;51.970;4.614;2022-11-15T08:40:01;31.70;;;7.50;;
17494;SDS011;8864;51.970;4.614;2022-11-15T08:42:29;34.67;;;6.95;;
17494;SDS011;8864;51.970;4.614;2022-11-15T08:44:55;25.40;;;5.05;;
17494;SDS011;8864;51.970;4.614;2022-11-15T08:47:22;28.95;;;5.45;;
17494;SDS011;8864;51.970;4.614;2022-11-15T08:49:49;28.30;;;4.30;;
17494;SDS011;8864;51.970;4.614;2022-11-15T08:52:16;20.55;;;4.03;;
17494;SDS011;8864;51.970;4.614;2022-11-15T08:54:44;18.48;;;3.90;;
17494;SDS011;8864;51.970;4.614;2022-11-15T08:57:11;17.58;;;4.53;;
17494;SDS011;8864;51.970;4.614;2022-11-15T08:59:38;22.67;;;4.30;;
17494;SDS011;8864;51.970;4.614;2022-11-15T09:02:05;17.10;;;4.03;;
17494;SDS011;8864;51.970;4.614;2022-11-15T09:04:31;15.52;;;4.10;;
17494;SDS011;8864;51.970;4.614;2022-11-15T09:06:58;11.13;;;3.33;;
17494;SDS011;8864;51.970;4.614;2022-11-15T09:09:25;12.52;;;3.25;;
17494;SDS011;8864;51.970;4.614;2022-11-15T09:11:53;13.68;;;3.10;;
17494;SDS011;8864;51.970;4.614;2022-11-15T09:14:20;17.85;;;3.88;;
17494;SDS011;8864;51.970;4.614;2022-11-15T09:16:47;17.45;;;3.60;;
17494;SDS011;8864;51.970;4.614;2022-11-15T09:19:14;14.77;;;3.67;;
17494;SDS011;8864;51.970;4.614;2022-11-15T09:21:40;13.63;;;3.33;;
17494;SDS011;8864;51.970;4.614;2022-11-15T09:24:07;12.48;;;3.30;;
17494;SDS011;8864;51.970;4.614;2022-11-15T09:26:34;8.73;;;3.35;;
17494;SDS011;8864;51.970;4.614;2022-11-15T09:29:02;10.98;;;2.80;;
17494;SDS011;8864;51.970;4.614;2022-11-15T09:31:29;9.60;;;2.85;;
17494;SDS011;8864;51.970;4.614;2022-11-15T09:33:56;13.30;;;3.05;;
17494;SDS011;8864;51.970;4.614;2022-11-15T09:36:23;6.60;;;2.40;;
17494;SDS011;8864;51.970;4.614;2022-11-15T09:38:50;9.48;;;2.40;;
17494;SDS011;8864;51.970;4.614;2022-11-15T09:41:24;10.13;;;2.20;;
17494;SDS011;8864;51.970;4.614;2022-11-15T09:44:05;8.20;;;2.70;;
17494;SDS011;8864;51.970;4.614;2022-11-15T09:46:47;6.68;;;2.33;;
17494;SDS011;8864;51.970;4.614;2022-11-15T09:49:22;7.45;;;2.15;;
17494;SDS011;8864;51.970;4.614;2022-11-15T09:51:50;6.97;;;2.10;;
17494;SDS011;8864;51.970;4.614;2022-11-15T09:54:25;4.13;;;1.85;;
17494;SDS011;8864;51.970;4.614;2022-11-15T09:56:55;4.25;;;1.55;;
17494;SDS011;8864;51.970;4.614;2022-11-15T09:59:38;3.40;;;1.60;;
17494;SDS011;8864;51.970;4.614;2022-11-15T10:02:19;6.75;;;1.70;;
17494;SDS011;8864;51.970;4.614;2022-11-15T10:04:59;2.20;;;1.20;;
17494;SDS011;8864;51.970;4.614;2022-11-15T10:07:28;4.68;;;1.70;;
17494;SDS011;8864;51.970;4.614;2022-11-15T10:10:08;4.00;;;1.30;;
17494;SDS011;8864;51.970;4.614;2022-11-15T10:12:41;3.20;;;1.48;;
17494;SDS011;8864;51.970;4.614;2022-11-15T10:15:16;6.70;;;1.45;;
17494;SDS011;8864;51.970;4.614;2022-11-15T10:18:04;4.90;;;1.75;;
17494;SDS011;8864;51.970;4.614;2022-11-15T10:20:42;6.28;;;1.88;;
17494;SDS011;8864;51.970;4.614;2022-11-15T10:23:14;3.08;;;1.60;;
17494;SDS011;8864;51.970;4.614;2022-11-15T10:25:42;6.18;;;1.60;;
17494;SDS011;8864;51.970;4.614;2022-11-15T10:28:10;3.53;;;1.35;;
17494;SDS011;8864;51.970;4.614;2022-11-15T10:30:42;2.85;;;1.33;;
17494;SDS011;8864;51.970;4.614;2022-11-15T10:33:11;3.92;;;1.50;;
17494;SDS011;8864;51.970;4.614;2022-11-15T10:35:44;3.30;;;1.30;;
17494;SDS011;8864;51.970;4.614;2022-11-15T10:38:12;6.13;;;1.42;;
17494;SDS011;8864;51.970;4.614;2022-11-15T10:40:39;4.07;;;1.20;;
17494;SDS011;8864;51.970;4.614;2022-11-15T10:43:13;3.78;;;1.00;;
17494;SDS011;8864;51.970;4.614;2022-11-15T10:45:43;3.63;;;1.05;;
17494;SDS011;8864;51.970;4.614;2022-11-15T10:48:19;2.58;;;1.05;;
17494;SDS011;8864;51.970;4.614;2022-11-15T10:50:50;5.22;;;1.67;;
17494;SDS011;8864;51.970;4.614;2022-11-15T10:53:22;4.18;;;1.23;;
17494;SDS011;8864;51.970;4.614;2022-11-15T10:55:56;5.78;;;1.27;;
17494;SDS011;8864;51.970;4.614;2022-11-15T10:58:30;2.25;;;1.40;;
17494;SDS011;8864;51.970;4.614;2022-11-15T11:01:11;3.15;;;1.20;;
17494;SDS011;8864;51.970;4.614;2022-11-15T11:03:41;4.22;;;1.05;;
17494;SDS011;8864;51.970;4.614;2022-11-15T11:06:10;3.63;;;0.95;;
17494;SDS011;8864;51.970;4.614;2022-11-15T11:08:38;4.95;;;1.20;;
17494;SDS011;8864;51.970;4.614;2022-11-15T11:11:05;3.60;;;1.45;;
17494;SDS011;8864;51.970;4.614;2022-11-15T11:13:34;6.63;;;1.25;;
17494;SDS011;8864;51.970;4.614;2022-11-15T11:16:19;8.23;;;1.08;;
17494;SDS011;8864;51.970;4.614;2022-11-15T11:19:02;1.73;;;1.00;;
17494;SDS011;8864;51.970;4.614;2022-11-15T11:21:43;4.18;;;1.17;;
17494;SDS011;8864;51.970;4.614;2022-11-15T11:24:19;4.15;;;1.45;;
17494;SDS011;8864;51.970;4.614;2022-11-15T11:26:55;4.10;;;0.98;;
17494;SDS011;8864;51.970;4.614;2022-11-15T11:29:36;1.60;;;0.93;;
17494;SDS011;8864;51.970;4.614;2022-11-15T11:32:18;2.20;;;1.10;;
17494;SDS011;8864;51.970;4.614;2022-11-15T11:34:54;1.95;;;1.10;;
17494;SDS011;8864;51.970;4.614;2022-11-15T11:37:28;3.40;;;1.48;;
17494;SDS011;8864;51.970;4.614;2022-11-15T11:40:05;3.25;;;1.17;;
17494;SDS011;8864;51.970;4.614;2022-11-15T11:42:43;3.20;;;1.15;;
17494;SDS011;8864;51.970;4.614;2022-11-15T11:45:20;2.38;;;0.95;;
17494;SDS011;8864;51.970;4.614;2022-11-15T11:47:58;2.67;;;0.90;;
17494;SDS011;8864;51.970;4.614;2022-11-15T11:50:33;4.13;;;1.20;;
17494;SDS011;8864;51.970;4.614;2022-11-15T11:53:06;5.68;;;1.20;;
17494;SDS011;8864;51.970;4.614;2022-11-15T11:55:39;3.40;;;1.10;;
17494;SDS011;8864;51.970;4.614;2022-11-15T11:58:11;3.83;;;1.00;;
17494;SDS011;8864;51.970;4.614;2022-11-15T12:00:43;4.30;;;1.88;;
17494;SDS011;8864;51.970;4.614;2022-11-15T12:03:18;3.13;;;1.27;;
17494;SDS011;8864;51.970;4.614;2022-11-15T12:05:51;2.67;;;0.90;;
17494;SDS011;8864;51.970;4.614;2022-11-15T12:08:24;2.92;;;1.08;;
17494;SDS011;8864;51.970;4.614;2022-11-15T12:10:59;3.95;;;0.90;;
17494;SDS011;8864;51.970;4.614;2022-11-15T12:13:32;2.97;;;0.98;;
17494;SDS011;8864;51.970;4.614;2022-11-15T12:16:03;1.95;;;0.80;;
17494;SDS011;8864;51.970;4.614;2022-11-15T12:18:35;2.85;;;0.80;;
17494;SDS011;8864;51.970;4.614;2022-11-15T12:21:03;1.70;;;0.85;;
17494;SDS011;8864;51.970;4.614;2022-11-15T12:23:35;4.43;;;1.08;;
17494;SDS011;8864;51.970;4.614;2022-11-15T12:26:09;2.80;;;1.05;;
17494;SDS011;8864;51.970;4.614;2022-11-15T12:28:41;3.67;;;1.00;;
17494;SDS011;8864;51.970;4.614;2022-11-15T12:31:11;3.65;;;0.82;;
17494;SDS011;8864;51.970;4.614;2022-11-15T12:33:43;2.85;;;0.90;;
17494;SDS011;8864;51.970;4.614;2022-11-15T12:39:03;3.50;;;0.90;;
17494;SDS011;8864;51.970;4.614;2022-11-15T12:41:31;3.75;;;1.00;;
17494;SDS011;8864;51.970;4.614;2022-11-15T12:43:59;2.47;;;1.00;;
17494;SDS011;8864;51.970;4.614;2022-11-15T12:52:11;7.72;;;0.90;;
17494;SDS011;8864;51.970;4.614;2022-11-15T12:57:40;5.18;;;1.00;;
17494;SDS011;8864;51.970;4.614;2022-11-15T13:03:24;3.30;;;0.85;;
17494;SDS011;8864;51.970;4.614;2022-11-15T13:05:57;4.50;;;1.27;;
17494;SDS011;8864;51.970;4.614;2022-11-15T13:08:48;3.35;;;0.90;;
17494;SDS011;8864;51.970;4.614;2022-11-15T13:17:23;10.15;;;1.20;;
17494;SDS011;8864;51.970;4.614;2022-11-15T13:20:00;9.55;;;1.33;;
17494;SDS011;8864;51.970;4.614;2022-11-15T13:22:39;9.13;;;1.42;;
17494;SDS011;8864;51.970;4.614;2022-11-15T13:25:38;7.68;;;1.20;;
17494;SDS011;8864;51.970;4.614;2022-11-15T13:28:42;9.25;;;1.40;;
17494;SDS011;8864;51.970;4.614;2022-11-15T13:34:01;12.07;;;1.25;;
17494;SDS011;8864;51.970;4.614;2022-11-15T13:36:40;5.70;;;1.02;;
17494;SDS011;8864;51.970;4.614;2022-11-15T13:39:12;10.55;;;1.63;;
17494;SDS011;8864;51.970;4.614;2022-11-15T13:41:51;7.47;;;1.77;;
17494;SDS011;8864;51.970;4.614;2022-11-15T13:44:19;9.07;;;1.48;;
17494;SDS011;8864;51.970;4.614;2022-11-15T13:46:47;9.73;;;1.38;;
17494;SDS011;8864;51.970;4.614;2022-11-15T13:49:14;4.22;;;1.05;;
17494;SDS011;8864;51.970;4.614;2022-11-15T13:51:42;10.13;;;1.20;;
17494;SDS011;8864;51.970;4.614;2022-11-15T13:54:16;9.48;;;1.10;;
17494;SDS011;8864;51.970;4.614;2022-11-15T13:56:46;11.23;;;1.52;;
17494;SDS011;8864;51.970;4.614;2022-11-15T13:59:20;10.27;;;1.10;;
17494;SDS011;8864;51.970;4.614;2022-11-15T14:01:51;4.50;;;0.93;;
17494;SDS011;8864;51.970;4.614;2022-11-15T14:04:19;3.85;;;0.90;;
17494;SDS011;8864;51.970;4.614;2022-11-15T14:06:50;8.23;;;1.20;;
17494;SDS011;8864;51.970;4.614;2022-11-15T14:09:29;3.38;;;1.00;;
17494;SDS011;8864;51.970;4.614;2022-11-15T14:12:01;8.20;;;1.15;;
17494;SDS011;8864;51.970;4.614;2022-11-15T14:14:46;7.85;;;1.10;;
17494;SDS011;8864;51.970;4.614;2022-11-15T14:17:18;5.22;;;1.00;;
17494;SDS011;8864;51.970;4.614;2022-11-15T14:19:48;10.10;;;1.13;;
17494;SDS011;8864;51.970;4.614;2022-11-15T14:22:17;6.68;;;0.70;;
17494;SDS011;8864;51.970;4.614;2022-11-15T14:25:03;3.38;;;0.90;;
17494;SDS011;8864;51.970;4.614;2022-11-15T14:27:41;4.43;;;1.17;;
17494;SDS011;8864;51.970;4.614;2022-11-15T14:30:12;6.57;;;0.90;;
17494;SDS011;8864;51.970;4.614;2022-11-15T14:32:42;4.57;;;1.23;;
17494;SDS011;8864;51.970;4.614;2022-11-15T14:35:12;7.80;;;1.17;;
17494;SDS011;8864;51.970;4.614;2022-11-15T14:37:42;4.97;;;1.25;;
17494;SDS011;8864;51.970;4.614;2022-11-15T14:40:13;10.30;;;1.90;;
17494;SDS011;8864;51.970;4.614;2022-11-15T14:42:42;10.30;;;2.03;;
17494;SDS011;8864;51.970;4.614;2022-11-15T14:45:11;5.63;;;1.85;;
17494;SDS011;8864;51.970;4.614;2022-11-15T14:47:40;4.35;;;1.70;;
17494;SDS011;8864;51.970;4.614;2022-11-15T14:50:10;10.55;;;1.90;;
17494;SDS011;8864;51.970;4.614;2022-11-15T14:52:38;10.57;;;1.52;;
17494;SDS011;8864;51.970;4.614;2022-11-15T14:55:10;7.20;;;1.30;;
17494;SDS011;8864;51.970;4.614;2022-11-15T14:57:42;4.28;;;1.25;;
17494;SDS011;8864;51.970;4.614;2022-11-15T15:00:10;10.27;;;1.65;;
17494;SDS011;8864;51.970;4.614;2022-11-15T15:02:37;7.25;;;1.52;;
17494;SDS011;8864;51.970;4.614;2022-11-15T15:05:10;4.78;;;1.17;;
17494;SDS011;8864;51.970;4.614;2022-11-15T15:07:40;9.52;;;2.05;;
17494;SDS011;8864;51.970;4.614;2022-11-15T15:10:07;3.72;;;1.13;;
17494;SDS011;8864;51.970;4.614;2022-11-15T15:12:36;6.85;;;1.50;;
17494;SDS011;8864;51.970;4.614;2022-11-15T15:15:02;10.75;;;1.60;;
17494;SDS011;8864;51.970;4.614;2022-11-15T15:17:30;6.78;;;1.33;;
17494;SDS011;8864;51.970;4.614;2022-11-15T15:19:57;8.77;;;1.75;;
17494;SDS011;8864;51.970;4.614;2022-11-15T15:22:23;7.15;;;1.40;;
17494;SDS011;8864;51.970;4.614;2022-11-15T15:24:54;7.03;;;1.50;;
17494;SDS011;8864;51.970;4.614;2022-11-15T15:27:20;9.38;;;1.88;;
17494;SDS011;8864;51.970;4.614;2022-11-15T15:29:49;10.85;;;1.50;;
17494;SDS011;8864;51.970;4.614;2022-11-15T15:32:15;6.05;;;1.23;;
17494;SDS011;8864;51.970;4.614;2022-11-15T15:34:42;4.88;;;1.20;;
17494;SDS011;8864;51.970;4.614;2022-11-15T15:37:17;11.70;;;1.30;;
17494;SDS011;8864;51.970;4.614;2022-11-15T15:39:48;12.68;;;1.45;;
17494;SDS011;8864;51.970;4.614;2022-11-15T15:42:15;10.68;;;1.80;;